createdAt,value
2017-09-06T00:00:17.636Z,18.39
2017-09-06T00:02:45.951Z,18.45
2017-09-06T00:05:14.310Z,18.42
2017-09-06T00:07:42.644Z,18.39
2017-09-06T00:10:12.875Z,18.42
2017-09-06T00:12:41.666Z,18.39
2017-09-06T00:15:10.883Z,18.35
2017-09-06T00:17:40.154Z,18.40
2017-09-06T00:20:08.483Z,18.34
2017-09-06T00:22:36.822Z,18.31
2017-09-06T00:25:05.157Z,18.28
2017-09-06T00:27:33.498Z,18.15
2017-09-06T00:30:02.267Z,18.09
2017-09-06T00:32:30.660Z,18.01
2017-09-06T00:34:58.994Z,17.99
2017-09-06T00:37:27.342Z,17.97
2017-09-06T00:39:55.672Z,17.83
2017-09-06T00:42:24.012Z,17.83
2017-09-06T00:44:52.366Z,17.74
2017-09-06T00:47:20.718Z,17.69
2017-09-06T00:49:49.054Z,17.77
2017-09-06T00:52:17.424Z,17.73
2017-09-06T00:54:45.779Z,17.77
2017-09-06T00:57:14.105Z,17.79
2017-09-06T00:59:42.468Z,17.81
2017-09-06T01:02:10.811Z,17.86
2017-09-06T01:04:39.147Z,17.70
2017-09-06T01:07:07.461Z,17.65
2017-09-06T01:09:36.703Z,17.59
2017-09-06T01:12:05.036Z,17.57
2017-09-06T01:14:33.386Z,17.51
2017-09-06T01:17:01.731Z,17.63
2017-09-06T01:19:30.065Z,17.61
2017-09-06T01:21:58.501Z,17.63
2017-09-06T01:24:26.858Z,17.59
2017-09-06T01:26:55.202Z,17.52
2017-09-06T01:29:24.357Z,17.58
2017-09-06T01:31:52.710Z,17.57
2017-09-06T01:34:21.060Z,17.61
2017-09-06T01:36:49.400Z,17.59
2017-09-06T01:39:17.773Z,17.67
2017-09-06T01:41:46.098Z,17.70
2017-09-06T01:44:14.426Z,17.76
2017-09-06T01:46:42.760Z,17.76
2017-09-06T01:49:11.076Z,17.78
2017-09-06T01:51:39.407Z,17.79
2017-09-06T01:54:07.742Z,17.83
2017-09-06T01:56:36.139Z,17.90
2017-09-06T01:59:04.468Z,17.92
2017-09-06T02:01:32.795Z,17.91
2017-09-06T02:04:02.147Z,17.94
2017-09-06T02:06:30.479Z,17.97
2017-09-06T02:08:59.301Z,17.97
2017-09-06T02:11:27.628Z,18.03
2017-09-06T02:13:55.969Z,18.03
2017-09-06T02:16:24.298Z,18.06
2017-09-06T02:18:52.630Z,18.09
2017-09-06T02:21:22.772Z,18.06
2017-09-06T02:23:51.099Z,18.09
2017-09-06T02:26:19.492Z,18.08
2017-09-06T02:28:47.842Z,18.06
2017-09-06T02:31:16.182Z,18.08
2017-09-06T02:33:44.528Z,18.07
2017-09-06T02:36:12.846Z,18.14
2017-09-06T02:38:41.298Z,18.12
2017-09-06T02:41:09.704Z,18.09
2017-09-06T02:43:38.157Z,18.07
2017-09-06T02:46:06.491Z,18.01
2017-09-06T02:48:34.832Z,18.02
2017-09-06T02:51:03.180Z,18.04
2017-09-06T02:53:31.514Z,17.94
2017-09-06T02:56:02.200Z,17.89
2017-09-06T02:58:30.539Z,17.83
2017-09-06T03:00:58.854Z,17.83
2017-09-06T03:03:27.197Z,17.82
2017-09-06T03:05:56.419Z,17.68
2017-09-06T03:08:24.851Z,17.67
2017-09-06T03:10:53.184Z,17.61
2017-09-06T03:13:22.091Z,17.68
2017-09-06T03:15:50.406Z,17.61
2017-09-06T03:18:18.739Z,17.61
2017-09-06T03:20:47.080Z,17.44
2017-09-06T03:23:15.445Z,17.36
2017-09-06T03:25:44.873Z,17.38
2017-09-06T03:28:13.187Z,17.35
2017-09-06T03:30:41.634Z,17.28
2017-09-06T03:33:10.776Z,17.26
2017-09-06T03:35:39.112Z,17.19
2017-09-06T03:38:07.461Z,17.15
2017-09-06T03:40:35.804Z,17.03
2017-09-06T03:43:04.157Z,17.07
2017-09-06T03:45:32.488Z,17.01
2017-09-06T03:48:00.841Z,16.94
2017-09-06T03:50:29.168Z,16.83
2017-09-06T03:52:58.405Z,16.91
2017-09-06T03:55:26.751Z,16.96
2017-09-06T03:57:55.069Z,16.91
2017-09-06T04:00:23.419Z,16.97
2017-09-06T04:02:52.336Z,17.00
2017-09-06T04:05:25.156Z,17.09
2017-09-06T04:07:53.471Z,17.13
2017-09-06T04:10:21.801Z,17.21
2017-09-06T04:12:50.923Z,17.22
2017-09-06T04:15:19.237Z,17.23
2017-09-06T04:17:47.588Z,17.27
2017-09-06T04:20:15.913Z,17.36
2017-09-06T04:22:44.537Z,17.33
2017-09-06T04:25:12.868Z,17.42
2017-09-06T04:27:41.691Z,17.45
2017-09-06T04:30:10.042Z,17.44
2017-09-06T04:32:38.371Z,17.48
2017-09-06T04:35:06.737Z,17.52
2017-09-06T04:37:35.058Z,17.50
2017-09-06T04:40:03.684Z,17.49
2017-09-06T04:42:32.016Z,17.47
2017-09-06T04:45:00.344Z,17.53
2017-09-06T04:47:28.685Z,17.59
2017-09-06T04:49:57.000Z,17.63
2017-09-06T04:52:25.345Z,17.62
2017-09-06T04:54:53.685Z,17.60
2017-09-06T04:57:22.363Z,17.62
2017-09-06T04:59:50.708Z,17.67
2017-09-06T05:02:19.053Z,17.67
2017-09-06T05:04:47.410Z,17.66
2017-09-06T05:07:15.734Z,17.65
2017-09-06T05:09:44.091Z,17.71
2017-09-06T05:12:12.417Z,17.74
2017-09-06T05:14:40.776Z,17.78
2017-09-06T05:17:09.134Z,17.81
2017-09-06T05:19:37.447Z,17.88
2017-09-06T05:22:05.803Z,17.87
2017-09-06T05:24:34.135Z,17.90
2017-09-06T05:27:03.279Z,17.96
2017-09-06T05:29:31.626Z,17.95
2017-09-06T05:31:59.947Z,18.01
2017-09-06T05:34:28.298Z,18.01
2017-09-06T05:36:56.814Z,18.05
2017-09-06T05:39:25.158Z,18.12
2017-09-06T05:41:53.474Z,18.16
2017-09-06T05:44:22.485Z,18.16
2017-09-06T05:46:51.536Z,18.20
2017-09-06T05:49:19.877Z,18.18
2017-09-06T05:51:48.213Z,18.17
2017-09-06T05:54:16.551Z,18.18
2017-09-06T05:56:44.890Z,18.15
2017-09-06T05:59:13.208Z,18.16
2017-09-06T06:01:41.567Z,18.12
2017-09-06T06:04:09.897Z,18.12
2017-09-06T06:06:38.233Z,18.08
2017-09-06T06:09:06.585Z,18.16
2017-09-06T06:11:34.911Z,18.17
2017-09-06T06:14:03.260Z,18.21
2017-09-06T06:16:31.584Z,18.29
2017-09-06T06:18:59.957Z,18.29
2017-09-06T06:21:28.307Z,18.34
2017-09-06T06:23:56.629Z,18.39
2017-09-06T06:26:24.987Z,18.40
2017-09-06T06:28:53.326Z,18.39
2017-09-06T06:31:22.025Z,18.41
2017-09-06T06:33:50.353Z,18.41
2017-09-06T06:36:18.682Z,18.47
2017-09-06T06:38:47.042Z,18.48
2017-09-06T06:41:15.355Z,18.42
2017-09-06T06:43:43.777Z,18.45
2017-09-06T06:46:12.166Z,18.56
2017-09-06T06:48:40.518Z,18.54
2017-09-06T06:51:08.850Z,18.60
2017-09-06T06:53:38.163Z,18.60
2017-09-06T06:56:06.509Z,18.63
2017-09-06T06:58:34.837Z,18.58
2017-09-06T07:01:03.171Z,18.53
2017-09-06T07:03:31.500Z,18.48
2017-09-06T07:06:00.147Z,18.41
2017-09-06T07:08:28.482Z,18.43
2017-09-06T07:10:56.804Z,18.47
2017-09-06T07:13:25.156Z,18.53
2017-09-06T07:15:53.486Z,18.48
2017-09-06T07:18:21.856Z,18.49
2017-09-06T07:20:50.186Z,18.52
2017-09-06T07:23:18.552Z,18.53
2017-09-06T07:25:46.878Z,18.53
2017-09-06T07:28:15.224Z,18.48
2017-09-06T07:30:43.566Z,18.50
2017-09-06T07:33:11.895Z,18.43
2017-09-06T07:35:40.241Z,18.39
2017-09-06T07:38:08.586Z,18.40
2017-09-06T07:40:36.947Z,18.44
2017-09-06T07:43:05.289Z,18.26
2017-09-06T07:45:33.631Z,18.26
2017-09-06T07:48:01.985Z,18.28
2017-09-06T07:50:30.368Z,18.38
2017-09-06T07:52:59.279Z,18.30
2017-09-06T07:55:27.628Z,18.40
2017-09-06T07:57:55.976Z,18.48
2017-09-06T08:00:24.321Z,18.54
2017-09-06T08:02:52.653Z,18.69
2017-09-06T08:05:21.008Z,18.69
2017-09-06T08:07:54.735Z,18.71
2017-09-06T08:10:23.069Z,18.58
2017-09-06T08:12:51.406Z,18.63
2017-09-06T08:15:19.778Z,18.66
2017-09-06T08:17:48.136Z,18.72
2017-09-06T08:20:16.467Z,18.84
2017-09-06T08:22:45.031Z,18.89
2017-09-06T08:25:13.365Z,18.90
2017-09-06T08:27:41.713Z,18.92
2017-09-06T08:30:10.040Z,18.87
2017-09-06T08:32:38.403Z,18.85
2017-09-06T08:35:06.849Z,18.90
2017-09-06T08:37:35.171Z,18.90
2017-09-06T08:40:03.505Z,18.85
2017-09-06T08:42:31.819Z,19.03
2017-09-06T08:45:00.147Z,19.05
2017-09-06T08:47:28.459Z,19.07
2017-09-06T08:49:57.117Z,19.11
2017-09-06T08:52:25.437Z,19.15
2017-09-06T08:54:53.762Z,19.16
2017-09-06T08:57:22.109Z,19.20
2017-09-06T08:59:50.433Z,19.20
2017-09-06T09:02:18.781Z,19.15
2017-09-06T09:04:47.117Z,19.10
2017-09-06T09:07:17.015Z,19.16
2017-09-06T09:09:45.365Z,19.06
2017-09-06T09:12:13.693Z,18.99
2017-09-06T09:14:42.060Z,19.06
2017-09-06T09:17:11.106Z,19.11
2017-09-06T09:19:39.439Z,19.08
2017-09-06T09:22:07.777Z,19.11
2017-09-06T09:24:36.119Z,19.07
2017-09-06T09:27:05.192Z,19.15
2017-09-06T09:29:33.600Z,19.27
2017-09-06T09:32:01.973Z,19.32
2017-09-06T09:34:30.295Z,19.27
2017-09-06T09:36:58.687Z,19.41
2017-09-06T09:39:27.029Z,19.48
2017-09-06T09:41:55.381Z,19.53
2017-09-06T09:44:23.741Z,19.54
2017-09-06T09:46:52.081Z,19.52
2017-09-06T09:49:20.485Z,19.44
2017-09-06T09:51:48.814Z,19.40
2017-09-06T09:54:17.148Z,19.42
2017-09-06T09:56:45.480Z,19.45
2017-09-06T09:59:14.273Z,19.51
2017-09-06T10:01:42.604Z,19.62
2017-09-06T10:04:10.943Z,19.61
2017-09-06T10:06:39.295Z,19.75
2017-09-06T10:09:07.634Z,19.76
2017-09-06T10:11:35.986Z,19.90
2017-09-06T10:14:04.380Z,19.95
2017-09-06T10:16:32.748Z,19.82
2017-09-06T10:19:01.084Z,19.78
2017-09-06T10:21:29.434Z,19.80
2017-09-06T10:23:57.772Z,19.75
2017-09-06T10:26:26.884Z,19.86
2017-09-06T10:28:55.239Z,19.82
2017-09-06T10:31:23.554Z,19.76
2017-09-06T10:33:52.216Z,19.63
2017-09-06T10:36:20.562Z,19.64
2017-09-06T10:38:48.885Z,19.53
2017-09-06T10:41:17.237Z,19.52
2017-09-06T10:43:45.552Z,19.39
2017-09-06T10:46:13.894Z,19.27
2017-09-06T10:48:42.220Z,19.29
2017-09-06T10:51:10.675Z,19.29
2017-09-06T10:53:39.004Z,19.16
2017-09-06T10:56:07.343Z,19.16
2017-09-06T10:58:35.687Z,19.10
2017-09-06T11:01:04.016Z,19.08
2017-09-06T11:03:32.364Z,19.03
2017-09-06T11:06:00.695Z,19.18
2017-09-06T11:08:29.484Z,19.08
2017-09-06T11:10:57.822Z,19.01
2017-09-06T11:13:26.153Z,18.98
2017-09-06T11:15:54.523Z,18.95
2017-09-06T11:18:22.906Z,19.09
2017-09-06T11:20:51.256Z,19.24
2017-09-06T11:23:19.567Z,19.35
2017-09-06T11:25:48.381Z,19.47
2017-09-06T11:28:16.714Z,19.27
2017-09-06T11:30:45.045Z,19.39
2017-09-06T11:33:14.068Z,19.31
2017-09-06T11:35:42.397Z,19.46
2017-09-06T11:38:10.736Z,19.48
2017-09-06T11:40:39.058Z,19.42
2017-09-06T11:43:07.767Z,19.47
2017-09-06T11:45:36.115Z,19.37
2017-09-06T11:48:04.434Z,19.32
2017-09-06T11:50:32.758Z,19.28
2017-09-06T11:53:01.098Z,19.12
2017-09-06T11:55:29.473Z,19.04
2017-09-06T11:57:57.795Z,18.96
2017-09-06T12:00:26.528Z,18.90
2017-09-06T12:02:54.853Z,19.00
2017-09-06T12:05:23.174Z,19.12
2017-09-06T12:07:51.511Z,19.33
2017-09-06T12:10:19.852Z,19.54
2017-09-06T12:12:48.271Z,19.60
2017-09-06T12:15:16.662Z,19.74
2017-09-06T12:17:45.365Z,19.62
2017-09-06T12:20:13.696Z,19.50
2017-09-06T12:22:42.038Z,19.44
2017-09-06T12:25:10.407Z,19.40
2017-09-06T12:27:38.746Z,19.34
2017-09-06T12:30:07.107Z,19.17
2017-09-06T12:32:35.428Z,19.02
2017-09-06T12:35:03.789Z,19.00
2017-09-06T12:37:32.215Z,19.12
2017-09-06T12:40:00.557Z,19.10
2017-09-06T12:42:28.911Z,19.02
2017-09-06T12:44:57.264Z,19.09
2017-09-06T12:47:25.603Z,19.04
2017-09-06T12:49:53.933Z,19.00
2017-09-06T12:52:22.294Z,18.99
2017-09-06T12:54:50.655Z,19.01
2017-09-06T12:57:18.999Z,18.90
2017-09-06T12:59:47.344Z,18.82
2017-09-06T13:02:15.685Z,18.87
2017-09-06T13:04:44.048Z,19.10
2017-09-06T13:07:12.419Z,19.22
2017-09-06T13:09:40.747Z,19.25
2017-09-06T13:12:09.153Z,19.14
2017-09-06T13:14:37.474Z,19.19
2017-09-06T13:17:05.823Z,19.16
2017-09-06T13:19:34.146Z,19.03
2017-09-06T13:22:02.542Z,18.99
2017-09-06T13:24:30.872Z,19.00
2017-09-06T13:26:59.195Z,18.87
2017-09-06T13:29:27.550Z,18.77
2017-09-06T13:31:56.619Z,18.82
2017-09-06T13:34:24.979Z,18.76
2017-09-06T13:36:53.307Z,18.82
2017-09-06T13:39:21.675Z,18.81
2017-09-06T13:41:50.026Z,18.81
2017-09-06T13:44:18.351Z,18.84
2017-09-06T13:46:46.700Z,18.93
2017-09-06T13:49:15.031Z,18.99
2017-09-06T13:51:43.395Z,18.97
2017-09-06T13:54:11.848Z,18.93
2017-09-06T13:56:40.218Z,19.08
2017-09-06T13:59:08.556Z,19.03
2017-09-06T14:01:36.880Z,19.11
2017-09-06T14:04:05.241Z,19.22
2017-09-06T14:06:33.569Z,19.29
2017-09-06T14:09:01.934Z,19.31
2017-09-06T14:11:30.829Z,19.22
2017-09-06T14:13:59.383Z,19.26
2017-09-06T14:16:27.758Z,19.44
2017-09-06T14:18:56.096Z,19.48
2017-09-06T14:21:24.491Z,19.67
2017-09-06T14:23:52.967Z,20.15
2017-09-06T14:26:21.318Z,20.71
2017-09-06T14:28:49.658Z,21.06
2017-09-06T14:31:18.003Z,21.32
2017-09-06T14:33:46.357Z,21.44
2017-09-06T14:36:14.705Z,21.59
2017-09-06T14:38:43.068Z,21.22
2017-09-06T14:41:11.400Z,21.07
2017-09-06T14:43:39.733Z,21.02
2017-09-06T14:46:10.341Z,20.96
2017-09-06T14:48:38.789Z,20.68
2017-09-06T14:51:07.138Z,20.41
2017-09-06T14:53:35.939Z,20.40
2017-09-06T14:56:05.085Z,20.37
2017-09-06T14:58:33.414Z,20.26
2017-09-06T15:01:01.749Z,20.19
2017-09-06T15:03:30.107Z,20.00
2017-09-06T15:05:58.457Z,19.99
2017-09-06T15:08:26.819Z,19.84
2017-09-06T15:10:56.082Z,19.82
2017-09-06T15:13:24.509Z,19.99
2017-09-06T15:15:52.986Z,20.08
2017-09-06T15:18:21.316Z,20.22
2017-09-06T15:20:49.658Z,20.19
2017-09-06T15:23:18.094Z,20.21
2017-09-06T15:25:46.491Z,20.15
2017-09-06T15:28:14.807Z,20.24
2017-09-06T15:30:43.343Z,20.06
2017-09-06T15:33:11.741Z,19.98
2017-09-06T15:35:40.094Z,19.82
2017-09-06T15:38:08.431Z,19.85
2017-09-06T15:40:36.849Z,19.87
2017-09-06T15:43:05.505Z,19.80
2017-09-06T15:45:33.857Z,19.78
2017-09-06T15:48:02.190Z,19.72
2017-09-06T15:50:33.294Z,19.67
2017-09-06T15:53:01.650Z,19.55
2017-09-06T15:55:31.027Z,19.41
2017-09-06T15:57:59.363Z,19.30
2017-09-06T16:00:27.744Z,19.32
2017-09-06T16:02:57.077Z,19.28
2017-09-06T16:05:25.442Z,19.17
2017-09-06T16:07:53.803Z,19.25
2017-09-06T16:10:22.174Z,19.17
2017-09-06T16:12:51.418Z,19.18
2017-09-06T16:15:19.764Z,19.16
2017-09-06T16:17:48.521Z,19.11
2017-09-06T16:20:16.868Z,18.99
2017-09-06T16:22:45.206Z,18.92
2017-09-06T16:25:13.554Z,18.69
2017-09-06T16:27:41.873Z,18.71
2017-09-06T16:30:10.273Z,18.60
2017-09-06T16:32:38.633Z,18.58
2017-09-06T16:35:06.993Z,18.61
2017-09-06T16:37:35.401Z,18.51
2017-09-06T16:40:03.806Z,18.46
2017-09-06T16:42:32.178Z,18.38
2017-09-06T16:45:00.509Z,18.20
2017-09-06T16:47:28.866Z,18.18
2017-09-06T16:49:57.197Z,18.02
2017-09-06T16:52:26.053Z,17.90
2017-09-06T16:54:54.397Z,17.96
2017-09-06T16:57:22.732Z,18.01
2017-09-06T16:59:51.089Z,17.98
2017-09-06T17:02:19.405Z,18.04
2017-09-06T17:04:48.130Z,18.04
2017-09-06T17:07:16.477Z,17.93
2017-09-06T17:09:45.287Z,18.00
2017-09-06T17:12:13.626Z,17.96
2017-09-06T17:14:41.956Z,18.00
2017-09-06T17:17:10.357Z,18.04
2017-09-06T17:19:38.702Z,18.02
2017-09-06T17:22:07.042Z,18.01
2017-09-06T17:24:35.389Z,18.00
2017-09-06T17:27:04.554Z,17.84
2017-09-06T17:29:32.880Z,17.75
2017-09-06T17:32:01.225Z,17.75
2017-09-06T17:34:29.590Z,17.72
2017-09-06T17:36:59.217Z,17.68
2017-09-06T17:39:27.575Z,17.67
2017-09-06T17:41:56.085Z,17.64
2017-09-06T17:44:24.446Z,17.59
2017-09-06T17:46:52.830Z,17.58
2017-09-06T17:49:21.152Z,17.60
2017-09-06T17:51:50.464Z,17.55
2017-09-06T17:54:19.084Z,17.41
2017-09-06T17:56:47.713Z,17.40
2017-09-06T17:59:16.048Z,17.39
2017-09-06T18:01:44.395Z,17.19
2017-09-06T18:04:12.777Z,17.14
2017-09-06T18:06:41.129Z,17.01
2017-09-06T18:09:09.506Z,16.92
2017-09-06T18:11:37.866Z,16.75
2017-09-06T18:14:06.242Z,16.61
2017-09-06T18:16:34.669Z,16.63
2017-09-06T18:19:03.001Z,16.62
2017-09-06T18:21:31.362Z,16.51
2017-09-06T18:23:59.703Z,16.51
2017-09-06T18:26:28.073Z,16.41
2017-09-06T18:28:56.436Z,16.41
2017-09-06T18:31:24.795Z,16.36
2017-09-06T18:33:53.577Z,16.29
2017-09-06T18:36:24.324Z,16.14
2017-09-06T18:38:52.649Z,16.15
2017-09-06T18:41:21.026Z,16.20
2017-09-06T18:43:50.497Z,16.14
2017-09-06T18:46:18.820Z,16.12
2017-09-06T18:48:47.177Z,16.17
2017-09-06T18:51:15.548Z,16.13
2017-09-06T18:53:43.859Z,16.14
2017-09-06T18:56:12.635Z,15.99
2017-09-06T18:58:40.996Z,16.05
2017-09-06T19:01:09.360Z,16.12
2017-09-06T19:03:37.688Z,16.03
2017-09-06T19:06:06.551Z,15.86
2017-09-06T19:08:34.902Z,15.91
2017-09-06T19:11:03.243Z,15.95
2017-09-06T19:13:31.600Z,16.01
2017-09-06T19:15:59.943Z,15.95
2017-09-06T19:18:29.335Z,15.96
2017-09-06T19:20:57.676Z,15.91
2017-09-06T19:23:26.020Z,15.91
2017-09-06T19:25:54.438Z,15.82
2017-09-06T19:28:22.781Z,15.82
2017-09-06T19:30:51.920Z,15.83
2017-09-06T19:33:20.764Z,15.66
2017-09-06T19:35:49.099Z,15.70
2017-09-06T19:38:17.825Z,15.65
2017-09-06T19:40:46.180Z,15.58
2017-09-06T19:43:14.606Z,15.60
2017-09-06T19:45:43.040Z,15.55
2017-09-06T19:48:11.387Z,15.53
2017-09-06T19:50:39.725Z,15.53
2017-09-06T19:53:08.085Z,15.54
2017-09-06T19:55:36.429Z,15.64
2017-09-06T19:58:05.725Z,15.44
2017-09-06T20:00:34.086Z,15.36
2017-09-06T20:03:02.862Z,15.38
2017-09-06T20:05:31.251Z,15.30
2017-09-06T20:07:59.593Z,15.24
2017-09-06T20:10:27.972Z,15.25
2017-09-06T20:12:56.301Z,15.30
2017-09-06T20:15:24.647Z,15.25
2017-09-06T20:17:53.011Z,15.16
2017-09-06T20:20:21.358Z,15.18
2017-09-06T20:22:49.696Z,15.14
2017-09-06T20:25:18.026Z,15.30
2017-09-06T20:27:46.347Z,15.23
2017-09-06T20:30:14.699Z,15.17
2017-09-06T20:32:43.035Z,15.11
2017-09-06T20:35:11.420Z,15.16
2017-09-06T20:37:39.744Z,15.01
2017-09-06T20:40:08.346Z,15.02
2017-09-06T20:42:36.683Z,15.04
2017-09-06T20:45:05.028Z,14.86
2017-09-06T20:47:33.369Z,14.86
2017-09-06T20:50:01.708Z,14.87
2017-09-06T20:52:30.079Z,14.92
2017-09-06T20:54:58.411Z,14.67
2017-09-06T20:57:27.017Z,14.67
2017-09-06T20:59:55.331Z,14.59
2017-09-06T21:02:23.641Z,14.48
2017-09-06T21:04:52.004Z,14.49
2017-09-06T21:07:20.335Z,14.43
2017-09-06T21:09:48.704Z,14.44
2017-09-06T21:12:17.068Z,14.51
2017-09-06T21:14:45.436Z,14.33
2017-09-06T21:17:13.781Z,14.30
2017-09-06T21:19:42.123Z,14.43
2017-09-06T21:22:10.488Z,14.23
2017-09-06T21:24:38.822Z,14.23
2017-09-06T21:27:07.165Z,14.17
2017-09-06T21:29:35.503Z,14.21
2017-09-06T21:32:03.868Z,14.11
2017-09-06T21:34:32.230Z,14.10
2017-09-06T21:37:00.563Z,14.20
2017-09-06T21:39:28.912Z,14.22
2017-09-06T21:41:57.255Z,14.08
2017-09-06T21:44:25.608Z,14.19
2017-09-06T21:46:53.934Z,14.13
2017-09-06T21:49:22.541Z,14.08
2017-09-06T21:51:50.893Z,14.11
2017-09-06T21:54:19.222Z,14.18
2017-09-06T21:56:47.578Z,14.23
2017-09-06T21:59:15.934Z,14.19
2017-09-06T22:01:44.276Z,14.19
2017-09-06T22:04:12.608Z,14.26
2017-09-06T22:06:40.954Z,14.30
2017-09-06T22:09:09.300Z,14.34
2017-09-06T22:11:37.631Z,14.41
2017-09-06T22:14:06.009Z,14.43
2017-09-06T22:16:34.361Z,14.52
2017-09-06T22:19:02.712Z,14.53
2017-09-06T22:21:31.041Z,14.52
2017-09-06T22:23:59.390Z,14.35
2017-09-06T22:26:27.738Z,14.31
2017-09-06T22:28:56.081Z,14.36
2017-09-06T22:31:24.446Z,14.41
2017-09-06T22:33:52.772Z,14.36
2017-09-06T22:36:21.131Z,14.31
2017-09-06T22:38:49.441Z,14.30
2017-09-06T22:41:18.693Z,14.40
2017-09-06T22:43:47.025Z,14.34
2017-09-06T22:46:15.379Z,14.35
2017-09-06T22:48:44.066Z,14.31
2017-09-06T22:51:12.471Z,14.35
2017-09-06T22:53:40.834Z,14.29
2017-09-06T22:56:09.195Z,14.29
2017-09-06T22:58:37.521Z,14.20
2017-09-06T23:01:05.855Z,14.22
2017-09-06T23:03:34.176Z,14.30
2017-09-06T23:06:02.511Z,14.20
2017-09-06T23:08:30.836Z,14.20
2017-09-06T23:10:59.451Z,14.22
2017-09-06T23:13:27.787Z,14.23
2017-09-06T23:15:56.116Z,14.22
2017-09-06T23:18:24.453Z,14.15
2017-09-06T23:20:52.782Z,14.11
2017-09-06T23:23:21.128Z,14.22
2017-09-06T23:25:49.466Z,14.18
2017-09-06T23:28:17.822Z,14.20
2017-09-06T23:30:46.163Z,14.25
2017-09-06T23:33:14.530Z,14.23
2017-09-06T23:35:42.918Z,14.30
2017-09-06T23:38:11.830Z,14.33
2017-09-06T23:40:40.724Z,14.26
2017-09-06T23:43:09.534Z,14.16
2017-09-06T23:45:38.469Z,14.14
2017-09-06T23:48:07.463Z,14.10
2017-09-06T23:50:36.706Z,14.20
2017-09-06T23:53:05.614Z,14.35
2017-09-06T23:55:33.940Z,14.44
2017-09-06T23:58:02.302Z,14.45
